Singer, Louisiana
Current Conditions -  °F | °C
As of 4:55 PM on Tuesday 25 Nov 2014 (Local Time) from KDRI Reporting Station
Clear Clear  
Wind Chill: 55°   Ceiling: Unl
Heat Index: 55°   Visibility: 10mi
Dew Point: 35°   Wind: 0mph
Humidity: 46%   Direction: NA
Pressure: 30.23"   Gusts: NA
Location:  30.66°N, 93.41°W
Report Text: KDRI 252255Z AUTO 00000KT 10SM CLR 13/02 A3023 RMK AO2 T01300016
Loading
Personal Weather Stations






























Interactive Weather Map New forecast layout! Learn more

10-Day Weather Forecast

Advertisements
Track Severe Weather on mobile